Time;durP1;ratioP1;P1;durP2;ratioP2;P2;SDS_P1;SDS_P2;PMS_P1;PMS_P2;Temp;Humidity;BMP_temperature;BMP_pressure;BME280_temperature;BME280_humidity;BME280_pressure;Samples;Min_cycle;Max_cycle;Signal;HPM_P1;HPM_P2
2023/07/04 00:02:04;;;;;;;;;;;13.30;99.90;;;;;;5000445;28;20250;-80
2023/07/04 00:04:29;;;;;;;;;;;13.20;99.90;;;;;;5016803;28;19962;-81
2023/07/04 00:06:55;;;;;;;;;;;13.30;99.90;;;;;;5020592;28;20485;-81
2023/07/04 00:09:20;;;;;;;;;;;13.30;99.90;;;;;;5020962;28;20380;-81
2023/07/04 00:11:46;;;;;;;;;;;13.30;99.90;;;;;;5002411;28;20039;-81
2023/07/04 00:14:12;;;;;;;;;;;13.30;99.90;;;;;;5001927;28;19916;-80
2023/07/04 00:16:38;;;;;;;;;;;13.30;99.90;;;;;;5022179;28;20388;-80
2023/07/04 00:19:06;;;;;;;;;;;13.30;99.90;;;;;;5004133;28;19913;-80
2023/07/04 00:21:31;;;;;;;;;;;13.30;99.90;;;;;;5036270;28;19912;-80
2023/07/04 00:23:57;;;;;;;;;;;13.30;99.90;;;;;;5036404;28;19925;-80
2023/07/04 00:26:24;;;;;;;;;;;13.30;99.90;;;;;;5004025;28;19913;-79
2023/07/04 00:28:49;;;;;;;;;;;13.30;99.90;;;;;;5002889;28;20288;-79
2023/07/04 00:31:17;;;;;;;;;;;13.20;99.90;;;;;;4999072;28;19913;-80
2023/07/04 00:33:45;;;;;;;;;;;13.20;99.90;;;;;;5021451;28;20763;-80
2023/07/04 00:36:15;;;;;;;;;;;13.20;99.90;;;;;;5002107;28;19999;-80
2023/07/04 00:38:41;;;;;;;;;;;13.30;99.90;;;;;;5022165;28;20275;-80
2023/07/04 00:41:14;;;;;;;;;;;13.20;99.90;;;;;;5021740;28;19916;-80
2023/07/04 00:44:00;;;;;;;;;;;13.20;99.90;;;;;;5022138;28;20071;-80
2023/07/04 00:46:38;;;;;;;;;;;13.20;99.90;;;;;;5021123;28;19909;-80
2023/07/04 00:49:14;;;;;;;;;;;13.20;99.90;;;;;;5021284;28;19940;-80
2023/07/04 00:51:42;;;;;;;;;;;13.20;99.90;;;;;;5021867;28;19913;-80
2023/07/04 00:54:08;;;;;;;;;;;13.20;99.90;;;;;;4998903;28;19929;-80
2023/07/04 00:56:33;;;;;;;;;;;13.20;99.90;;;;;;5004318;28;19967;-80
2023/07/04 00:58:59;;;;;;;;;;;13.20;99.90;;;;;;4997204;28;19920;-79
2023/07/04 01:01:25;;;;;;;;;;;13.20;99.90;;;;;;5019718;28;20105;-80
2023/07/04 01:03:52;;;;;;;;;;;13.20;99.90;;;;;;4999269;28;19919;-81
2023/07/04 01:06:23;;;;;;;;;;;13.20;99.90;;;;;;5004179;28;19936;-82
2023/07/04 01:08:55;;;;;;;;;;;13.10;99.90;;;;;;5021229;28;19917;-81
2023/07/04 01:11:29;;;;;;;;;;;13.10;99.90;;;;;;5021362;28;19913;-82
2023/07/04 01:13:55;;;;;;;;;;;13.00;99.90;;;;;;4998438;28;19909;-81
2023/07/04 01:16:20;;;;;;;;;;;13.00;99.90;;;;;;4999296;28;20285;-81
2023/07/04 01:18:48;;;;;;;;;;;13.00;99.90;;;;;;5021467;28;19919;-81
2023/07/04 01:21:17;;;;;;;;;;;13.00;99.90;;;;;;4997955;28;19948;-81
2023/07/04 01:23:51;;;;;;;;;;;13.00;99.90;;;;;;4999188;28;19921;-81
2023/07/04 01:26:30;;;;;;;;;;;13.00;99.90;;;;;;5021235;28;19913;-82
2023/07/04 01:28:55;;;;;;;;;;;13.00;99.90;;;;;;5003928;28;20785;-82
2023/07/04 01:31:22;;;;;;;;;;;13.10;99.90;;;;;;5021463;28;19916;-81
2023/07/04 01:33:48;;;;;;;;;;;13.10;99.90;;;;;;5017610;28;19920;-82
2023/07/04 01:36:18;;;;;;;;;;;13.10;99.90;;;;;;5002164;28;19913;-80
2023/07/04 01:38:43;;;;;;;;;;;13.10;99.90;;;;;;5021525;28;19920;-80
2023/07/04 01:41:10;;;;;;;;;;;13.20;99.90;;;;;;5007367;28;19913;-80
2023/07/04 01:43:36;;;;;;;;;;;13.30;99.90;;;;;;5007393;28;19944;-81
2023/07/04 01:46:02;;;;;;;;;;;13.30;99.90;;;;;;5000374;28;19982;-80
2023/07/04 01:48:28;;;;;;;;;;;13.30;99.90;;;;;;5040243;28;20399;-81
2023/07/04 01:50:53;;;;;;;;;;;13.30;99.90;;;;;;5024488;28;19917;-80
2023/07/04 01:53:19;;;;;;;;;;;13.40;99.90;;;;;;5024741;28;20388;-80
2023/07/04 01:55:44;;;;;;;;;;;13.40;99.90;;;;;;5024848;28;19967;-80
2023/07/04 01:58:10;;;;;;;;;;;13.40;99.90;;;;;;5021604;28;19924;-80
2023/07/04 02:00:35;;;;;;;;;;;13.50;99.90;;;;;;5024868;28;19913;-81
2023/07/04 02:03:01;;;;;;;;;;;13.50;99.90;;;;;;5024477;28;20012;-81
2023/07/04 02:05:27;;;;;;;;;;;13.50;99.90;;;;;;4999529;28;19913;-80
2023/07/04 02:07:53;;;;;;;;;;;13.50;99.90;;;;;;5021535;28;19913;-80
2023/07/04 02:10:19;;;;;;;;;;;13.60;99.90;;;;;;5023788;28;19918;-81
2023/07/04 02:12:45;;;;;;;;;;;13.50;99.90;;;;;;5025396;28;20273;-80
2023/07/04 02:15:11;;;;;;;;;;;13.50;99.90;;;;;;5024492;28;19945;-80
2023/07/04 02:17:37;;;;;;;;;;;13.50;99.90;;;;;;5039456;28;20571;-80
2023/07/04 02:20:04;;;;;;;;;;;13.50;99.90;;;;;;5024397;28;19935;-80
2023/07/04 02:22:31;;;;;;;;;;;13.50;99.90;;;;;;5022652;28;20247;-80
2023/07/04 02:24:58;;;;;;;;;;;13.50;99.90;;;;;;5023542;28;19917;-80
2023/07/04 02:27:26;;;;;;;;;;;13.50;99.90;;;;;;5023990;28;19986;-80
2023/07/04 02:29:51;;;;;;;;;;;13.50;99.90;;;;;;5023444;28;20426;-80
2023/07/04 02:32:18;;;;;;;;;;;13.40;99.90;;;;;;5001727;28;19921;-80
2023/07/04 02:34:44;;;;;;;;;;;13.50;99.90;;;;;;5016896;28;19913;-80
2023/07/04 02:37:10;;;;;;;;;;;13.40;99.90;;;;;;5023721;28;19912;-80
2023/07/04 02:39:40;;;;;;;;;;;13.40;99.90;;;;;;5024160;28;19925;-80
2023/07/04 02:42:09;;;;;;;;;;;13.30;99.90;;;;;;5021990;28;20799;-79
2023/07/04 02:44:35;;;;;;;;;;;13.30;99.90;;;;;;5005164;28;19920;-79
2023/07/04 02:47:01;;;;;;;;;;;13.20;99.90;;;;;;5001159;28;20351;-80
2023/07/04 02:49:26;;;;;;;;;;;13.20;99.90;;;;;;5024371;28;20141;-79
2023/07/04 02:51:52;;;;;;;;;;;13.10;99.90;;;;;;5003657;28;19913;-80
2023/07/04 02:54:17;;;;;;;;;;;13.10;99.90;;;;;;5021974;28;20373;-79
2023/07/04 02:56:43;;;;;;;;;;;13.00;99.90;;;;;;5006096;28;19916;-81
2023/07/04 02:59:09;;;;;;;;;;;13.00;99.90;;;;;;4999826;28;19935;-81
2023/07/04 03:01:34;;;;;;;;;;;13.00;99.90;;;;;;4999785;28;20754;-80
2023/07/04 03:04:01;;;;;;;;;;;12.90;99.90;;;;;;5003288;28;19913;-80
2023/07/04 03:06:27;;;;;;;;;;;12.90;99.90;;;;;;5021377;28;19913;-80
2023/07/04 03:08:55;;;;;;;;;;;12.90;99.90;;;;;;5022692;28;20396;-80
2023/07/04 03:11:20;;;;;;;;;;;12.80;99.90;;;;;;5001901;28;20372;-81
2023/07/04 03:13:46;;;;;;;;;;;12.80;99.90;;;;;;5023806;28;19991;-81
2023/07/04 03:16:11;;;;;;;;;;;12.80;99.90;;;;;;5022050;28;19913;-81
2023/07/04 03:18:37;;;;;;;;;;;12.80;99.90;;;;;;5038216;28;20020;-81
2023/07/04 03:21:02;;;;;;;;;;;12.70;99.90;;;;;;5022450;28;19920;-81
2023/07/04 03:23:28;;;;;;;;;;;12.70;99.90;;;;;;5023393;28;19929;-81
2023/07/04 03:25:53;;;;;;;;;;;12.70;99.90;;;;;;5001356;28;19916;-80
2023/07/04 03:28:19;;;;;;;;;;;12.80;99.90;;;;;;5023548;28;19913;-80
2023/07/04 03:30:44;;;;;;;;;;;12.80;99.90;;;;;;5023138;28;19928;-80
2023/07/04 03:33:10;;;;;;;;;;;12.80;99.90;;;;;;5018245;28;19996;-80
2023/07/04 03:35:38;;;;;;;;;;;12.80;99.90;;;;;;5020287;28;20386;-80
2023/07/04 03:38:03;;;;;;;;;;;12.80;99.90;;;;;;5022276;28;19917;-80
2023/07/04 03:40:29;;;;;;;;;;;12.70;99.90;;;;;;5022704;28;19913;-80
2023/07/04 03:42:54;;;;;;;;;;;12.70;99.90;;;;;;5022421;28;19909;-80
2023/07/04 03:45:20;;;;;;;;;;;12.70;99.90;;;;;;5022355;28;19916;-81
2023/07/04 03:47:46;;;;;;;;;;;12.70;99.90;;;;;;5037708;28;22156;-82
2023/07/04 03:50:13;;;;;;;;;;;12.80;99.90;;;;;;5022614;28;20494;-80
2023/07/04 03:52:42;;;;;;;;;;;12.80;99.90;;;;;;5037087;28;20461;-80
2023/07/04 03:55:08;;;;;;;;;;;12.80;99.90;;;;;;5022442;28;19982;-80
2023/07/04 03:57:33;;;;;;;;;;;12.90;99.90;;;;;;5021181;28;20365;-80
2023/07/04 03:59:59;;;;;;;;;;;12.90;99.90;;;;;;4998468;28;19909;-81
2023/07/04 04:02:24;;;;;;;;;;;12.90;99.90;;;;;;5035391;28;19909;-80
2023/07/04 04:04:50;;;;;;;;;;;12.90;99.90;;;;;;4999332;28;20433;-81
2023/07/04 04:07:16;;;;;;;;;;;12.90;99.90;;;;;;5003759;28;19916;-80
2023/07/04 04:09:42;;;;;;;;;;;12.90;99.90;;;;;;5004558;28;19921;-81
2023/07/04 04:12:08;;;;;;;;;;;13.00;99.90;;;;;;5018739;28;19917;-80
2023/07/04 04:14:36;;;;;;;;;;;13.00;99.90;;;;;;5002699;28;20008;-81
2023/07/04 04:17:02;;;;;;;;;;;13.00;99.90;;;;;;4998075;28;19996;-80
2023/07/04 04:19:28;;;;;;;;;;;13.00;99.90;;;;;;4999254;28;19927;-80
2023/07/04 04:21:54;;;;;;;;;;;13.10;99.90;;;;;;5021818;28;19913;-80
2023/07/04 04:24:20;;;;;;;;;;;13.10;99.90;;;;;;5004897;28;19962;-80
2023/07/04 04:26:46;;;;;;;;;;;13.10;99.90;;;;;;4999508;28;19948;-80
2023/07/04 04:29:13;;;;;;;;;;;13.10;99.90;;;;;;5021250;28;19928;-81
2023/07/04 04:31:39;;;;;;;;;;;13.10;99.90;;;;;;5022072;28;20349;-80
2023/07/04 04:34:06;;;;;;;;;;;13.10;99.90;;;;;;5021071;28;19913;-80
2023/07/04 04:36:31;;;;;;;;;;;13.10;99.90;;;;;;5022194;28;19991;-80
2023/07/04 04:38:59;;;;;;;;;;;13.20;99.90;;;;;;5019877;28;20365;-80
2023/07/04 04:41:25;;;;;;;;;;;13.10;99.90;;;;;;5025652;28;20008;-80
2023/07/04 04:43:50;;;;;;;;;;;13.10;99.90;;;;;;5033636;28;20516;-81
2023/07/04 04:46:16;;;;;;;;;;;13.20;99.90;;;;;;5008104;28;20296;-80
2023/07/04 04:48:43;;;;;;;;;;;13.20;99.90;;;;;;5009125;28;19959;-80
2023/07/04 04:51:10;;;;;;;;;;;13.20;99.90;;;;;;5047264;28;19984;-80
2023/07/04 04:53:40;;;;;;;;;;;13.20;99.90;;;;;;5023080;28;19929;-80
2023/07/04 04:56:06;;;;;;;;;;;13.20;99.90;;;;;;5005202;28;20482;-81
2023/07/04 04:58:31;;;;;;;;;;;13.40;99.90;;;;;;5023210;28;19967;-80
2023/07/04 05:00:57;;;;;;;;;;;13.50;99.90;;;;;;5004125;28;20420;-80
2023/07/04 05:03:23;;;;;;;;;;;13.60;99.90;;;;;;5022337;28;19962;-80
2023/07/04 05:05:48;;;;;;;;;;;13.70;99.90;;;;;;5020007;28;19931;-80
2023/07/04 05:08:14;;;;;;;;;;;13.70;99.90;;;;;;5001440;28;20250;-80
2023/07/04 05:10:40;;;;;;;;;;;13.80;99.90;;;;;;5025658;28;20006;-79
2023/07/04 05:13:05;;;;;;;;;;;13.80;99.90;;;;;;5025203;28;19951;-79
2023/07/04 05:15:30;;;;;;;;;;;13.90;99.90;;;;;;5025518;28;20008;-80
2023/07/04 05:17:56;;;;;;;;;;;13.90;99.90;;;;;;5023733;28;19917;-80
2023/07/04 05:20:25;;;;;;;;;;;13.90;99.90;;;;;;5023896;28;20268;-80
2023/07/04 05:22:56;;;;;;;;;;;13.90;99.90;;;;;;5007154;28;19917;-80
2023/07/04 05:25:22;;;;;;;;;;;14.00;99.90;;;;;;5026257;28;19913;-80
2023/07/04 05:27:49;;;;;;;;;;;13.90;99.90;;;;;;4998706;28;19966;-80
2023/07/04 05:30:15;;;;;;;;;;;14.00;99.90;;;;;;5010133;28;19955;-79
2023/07/04 05:32:41;;;;;;;;;;;14.00;99.90;;;;;;5040660;28;19984;-79
2023/07/04 05:35:06;;;;;;;;;;;14.10;99.90;;;;;;5021794;28;20804;-79
2023/07/04 05:37:32;;;;;;;;;;;14.10;99.90;;;;;;5025904;28;20579;-79
2023/07/04 05:39:58;;;;;;;;;;;14.20;99.90;;;;;;5024299;28;20013;-81
2023/07/04 05:42:25;;;;;;;;;;;14.30;99.90;;;;;;5002383;28;19909;-79
2023/07/04 05:44:51;;;;;;;;;;;14.30;99.90;;;;;;5002398;28;19999;-80
2023/07/04 05:47:17;;;;;;;;;;;14.30;99.90;;;;;;5002912;28;19931;-80
2023/07/04 05:49:43;;;;;;;;;;;14.30;99.90;;;;;;5025166;28;19921;-80
2023/07/04 05:52:08;;;;;;;;;;;14.40;99.90;;;;;;5001288;28;20035;-79
2023/07/04 05:54:34;;;;;;;;;;;14.40;99.90;;;;;;5003232;28;19921;-80
2023/07/04 05:57:01;;;;;;;;;;;14.30;99.90;;;;;;5022438;28;19920;-80
2023/07/04 05:59:27;;;;;;;;;;;14.40;99.90;;;;;;5008037;28;19920;-80
2023/07/04 06:01:53;;;;;;;;;;;14.40;99.90;;;;;;5006726;28;19936;-80
2023/07/04 06:04:18;;;;;;;;;;;14.40;99.90;;;;;;4999518;28;20365;-80
2023/07/04 06:06:50;;;;;;;;;;;14.40;99.90;;;;;;4999267;28;20419;-79
2023/07/04 06:09:16;;;;;;;;;;;14.50;99.90;;;;;;5025139;28;19948;-80
2023/07/04 06:11:45;;;;;;;;;;;14.50;99.90;;;;;;5007057;28;19913;-80
2023/07/04 06:14:24;;;;;;;;;;;14.60;99.90;;;;;;5024583;28;19920;-80
2023/07/04 06:16:50;;;;;;;;;;;14.60;99.90;;;;;;5000000;28;20380;-80
2023/07/04 06:19:21;;;;;;;;;;;14.70;99.90;;;;;;5025750;28;19956;-80
2023/07/04 06:21:48;;;;;;;;;;;14.70;99.90;;;;;;5003040;28;19917;-80
2023/07/04 06:24:15;;;;;;;;;;;14.80;99.90;;;;;;5022035;28;19940;-80
2023/07/04 06:26:40;;;;;;;;;;;14.90;99.90;;;;;;5024798;28;20276;-80
2023/07/04 06:29:06;;;;;;;;;;;14.90;99.90;;;;;;5000428;28;19921;-80
2023/07/04 06:31:31;;;;;;;;;;;15.00;99.90;;;;;;5017685;28;20391;-79
2023/07/04 06:33:57;;;;;;;;;;;15.10;99.90;;;;;;5022674;28;19917;-79
2023/07/04 06:36:23;;;;;;;;;;;15.10;99.90;;;;;;5001617;28;20421;-79
2023/07/04 06:38:49;;;;;;;;;;;15.20;99.90;;;;;;5001248;28;19964;-79
2023/07/04 06:41:15;;;;;;;;;;;15.30;99.90;;;;;;5001612;28;19948;-78
2023/07/04 06:43:44;;;;;;;;;;;15.40;99.90;;;;;;5024192;28;19952;-79
2023/07/04 06:46:17;;;;;;;;;;;15.50;99.90;;;;;;5021530;28;20369;-79
2023/07/04 06:48:42;;;;;;;;;;;15.50;99.90;;;;;;5023393;28;20328;-79
2023/07/04 06:51:12;;;;;;;;;;;15.50;99.90;;;;;;5005496;28;19917;-78
2023/07/04 06:53:38;;;;;;;;;;;15.60;99.90;;;;;;5021139;28;20019;-79
2023/07/04 06:56:14;;;;;;;;;;;15.60;99.90;;;;;;5037721;28;20582;-79
2023/07/04 06:58:42;;;;;;;;;;;15.60;99.90;;;;;;5023657;28;19913;-79
2023/07/04 07:01:10;;;;;;;;;;;15.70;99.90;;;;;;4997860;28;19943;-79
2023/07/04 07:03:36;;;;;;;;;;;15.70;99.90;;;;;;5039158;28;19944;-79
2023/07/04 07:06:05;;;;;;;;;;;15.90;99.90;;;;;;5017127;28;19917;-79
2023/07/04 07:08:34;;;;;;;;;;;15.90;99.90;;;;;;5037349;28;19928;-79
2023/07/04 07:11:04;;;;;;;;;;;15.90;99.90;;;;;;5001081;28;19913;-79
2023/07/04 07:13:30;;;;;;;;;;;15.90;99.90;;;;;;5000696;28;20002;-80
2023/07/04 07:16:12;;;;;;;;;;;16.00;99.90;;;;;;5022505;28;20420;-79
2023/07/04 07:18:39;;;;;;;;;;;16.10;99.90;;;;;;5038807;28;20015;-79
2023/07/04 07:21:05;;;;;;;;;;;16.10;99.90;;;;;;5023416;28;20016;-79
2023/07/04 07:23:32;;;;;;;;;;;16.20;99.90;;;;;;5005049;28;19921;-79
2023/07/04 07:25:59;;;;;;;;;;;16.40;99.90;;;;;;5022604;28;19917;-79
2023/07/04 07:28:25;;;;;;;;;;;16.50;99.90;;;;;;5023374;28;19966;-79
2023/07/04 07:31:01;;;;;;;;;;;16.70;99.90;;;;;;5001936;28;19913;-80
2023/07/04 07:33:26;;;;;;;;;;;16.80;99.90;;;;;;5023340;28;19909;-79
2023/07/04 07:35:52;;;;;;;;;;;16.80;99.90;;;;;;5022078;28;20007;-78
2023/07/04 07:38:17;;;;;;;;;;;16.80;99.90;;;;;;5037891;28;20424;-77
2023/07/04 07:40:49;;;;;;;;;;;16.80;99.90;;;;;;5022092;28;19913;-79
2023/07/04 07:43:14;;;;;;;;;;;16.80;99.90;;;;;;5015579;28;19916;-79
2023/07/04 07:45:40;;;;;;;;;;;16.80;99.90;;;;;;5022845;28;20811;-79
2023/07/04 07:48:07;;;;;;;;;;;16.90;99.90;;;;;;5022033;28;20766;-78
2023/07/04 07:50:32;;;;;;;;;;;17.00;99.90;;;;;;5021082;28;19912;-79
2023/07/04 07:52:59;;;;;;;;;;;17.10;99.90;;;;;;5019846;28;19927;-78
2023/07/04 07:55:25;;;;;;;;;;;17.10;99.90;;;;;;5022832;28;20007;-78
2023/07/04 07:57:55;;;;;;;;;;;17.10;99.90;;;;;;4998716;28;19917;-78
2023/07/04 08:00:21;;;;;;;;;;;17.10;99.90;;;;;;5022418;28;19979;-78
2023/07/04 08:02:47;;;;;;;;;;;17.20;99.90;;;;;;4998319;28;20369;-78
2023/07/04 08:05:12;;;;;;;;;;;17.20;99.90;;;;;;5020561;28;19917;-78
2023/07/04 08:07:38;;;;;;;;;;;17.20;99.90;;;;;;5021867;28;19971;-78
2023/07/04 08:10:04;;;;;;;;;;;17.30;99.90;;;;;;5021185;28;19998;-78
2023/07/04 08:12:30;;;;;;;;;;;17.40;99.90;;;;;;5022474;28;20357;-78
2023/07/04 08:14:56;;;;;;;;;;;17.40;99.90;;;;;;5021399;28;19918;-78
2023/07/04 08:17:21;;;;;;;;;;;17.50;99.90;;;;;;5019791;28;19917;-78
2023/07/04 08:19:48;;;;;;;;;;;17.50;99.90;;;;;;5021552;28;19917;-79
2023/07/04 08:22:21;;;;;;;;;;;17.50;99.90;;;;;;5020672;28;20458;-78
2023/07/04 08:24:46;;;;;;;;;;;17.50;99.90;;;;;;5020833;28;20589;-78
2023/07/04 08:27:12;;;;;;;;;;;17.50;99.90;;;;;;5018809;28;19932;-78
2023/07/04 08:29:38;;;;;;;;;;;17.50;99.90;;;;;;5021077;28;20302;-78
2023/07/04 08:32:05;;;;;;;;;;;17.40;99.90;;;;;;5035005;28;20020;-78
2023/07/04 08:34:33;;;;;;;;;;;17.40;99.90;;;;;;5019325;28;19917;-78
2023/07/04 08:36:58;;;;;;;;;;;17.30;99.90;;;;;;5035481;28;20353;-77
2023/07/04 08:39:26;;;;;;;;;;;17.40;99.90;;;;;;5015757;28;19923;-77
2023/07/04 08:41:56;;;;;;;;;;;17.40;99.90;;;;;;4997992;28;19920;-77
2023/07/04 08:44:24;;;;;;;;;;;17.30;99.90;;;;;;4997892;28;21013;-78
2023/07/04 08:46:50;;;;;;;;;;;17.40;99.90;;;;;;4998702;28;19963;-78
2023/07/04 08:49:22;;;;;;;;;;;17.30;99.90;;;;;;5021689;28;19920;-78
2023/07/04 08:51:52;;;;;;;;;;;17.40;99.90;;;;;;5018781;28;19983;-78
2023/07/04 08:54:20;;;;;;;;;;;17.40;99.90;;;;;;5036442;28;19956;-78
2023/07/04 08:56:49;;;;;;;;;;;17.40;99.90;;;;;;5033005;28;19925;-77
2023/07/04 08:59:23;;;;;;;;;;;17.50;99.90;;;;;;5021486;28;20254;-78
2023/07/04 09:01:52;;;;;;;;;;;17.70;99.90;;;;;;4997753;28;19913;-78
2023/07/04 09:04:27;;;;;;;;;;;17.90;99.90;;;;;;5021304;28;19924;-78
2023/07/04 09:07:14;;;;;;;;;;;18.10;99.90;;;;;;5018624;28;19913;-78
2023/07/04 09:09:54;;;;;;;;;;;18.30;99.90;;;;;;5010588;28;19909;-78
2023/07/04 09:12:20;;;;;;;;;;;18.50;99.90;;;;;;5036152;28;20349;-78
2023/07/04 09:14:58;;;;;;;;;;;18.70;99.90;;;;;;5022299;28;19913;-78
2023/07/04 09:17:32;;;;;;;;;;;18.70;99.90;;;;;;5005114;28;19917;-78
2023/07/04 09:19:58;;;;;;;;;;;18.80;99.90;;;;;;5016984;28;19920;-79
2023/07/04 09:22:28;;;;;;;;;;;18.90;99.90;;;;;;5003309;28;19909;-78
2023/07/04 09:24:54;;;;;;;;;;;18.90;99.90;;;;;;5020524;28;19909;-77
2023/07/04 09:27:20;;;;;;;;;;;18.80;99.90;;;;;;5036087;28;19921;-77
2023/07/04 09:29:48;;;;;;;;;;;18.80;99.90;;;;;;5020128;28;20019;-78
2023/07/04 09:32:14;;;;;;;;;;;18.90;99.90;;;;;;4999212;28;19913;-78
2023/07/04 09:34:50;;;;;;;;;;;19.00;99.90;;;;;;5001723;28;19916;-78
2023/07/04 09:37:17;;;;;;;;;;;19.20;99.90;;;;;;5035958;28;19912;-78
2023/07/04 09:39:47;;;;;;;;;;;19.80;99.90;;;;;;5020870;28;19909;-78
2023/07/04 09:42:13;;;;;;;;;;;20.20;99.90;;;;;;5033313;28;19913;-78
2023/07/04 09:44:40;;;;;;;;;;;20.70;99.90;;;;;;5020020;28;19913;-78
2023/07/04 09:47:07;;;;;;;;;;;21.30;99.90;;;;;;4996922;28;20719;-78
2023/07/04 09:49:35;;;;;;;;;;;21.50;99.90;;;;;;5033640;28;19998;-78
2023/07/04 09:52:02;;;;;;;;;;;21.50;99.90;;;;;;5020166;28;19917;-78
2023/07/04 09:54:35;;;;;;;;;;;21.30;99.90;;;;;;5038454;28;20341;-79
2023/07/04 09:57:21;;;;;;;;;;;21.60;99.90;;;;;;5038208;28;19917;-79
2023/07/04 09:59:46;;;;;;;;;;;21.60;99.90;;;;;;5001892;28;20323;-78
2023/07/04 10:02:24;;;;;;;;;;;21.20;99.90;;;;;;5000900;28;19919;-77
2023/07/04 10:04:50;;;;;;;;;;;21.10;99.90;;;;;;5024365;28;19960;-78
2023/07/04 10:07:19;;;;;;;;;;;21.30;99.90;;;;;;5023576;28;20407;-78
2023/07/04 10:10:03;;;;;;;;;;;21.60;99.90;;;;;;5007530;28;19955;-78
2023/07/04 10:12:31;;;;;;;;;;;22.00;99.90;;;;;;5000488;28;19920;-78
2023/07/04 10:14:57;;;;;;;;;;;22.30;99.90;;;;;;5006625;28;19987;-78
2023/07/04 10:17:30;;;;;;;;;;;22.60;99.90;;;;;;5022746;28;19924;-78
2023/07/04 10:19:59;;;;;;;;;;;22.90;99.90;;;;;;5022761;28;19920;-78
2023/07/04 10:22:27;;;;;;;;;;;22.40;99.90;;;;;;5023981;28;19962;-78
2023/07/04 10:24:53;;;;;;;;;;;21.90;99.90;;;;;;5039200;28;20388;-77
2023/07/04 10:27:19;;;;;;;;;;;21.90;99.90;;;;;;5024853;28;19927;-78
2023/07/04 10:29:52;;;;;;;;;;;22.00;99.90;;;;;;5024261;28;19913;-78
2023/07/04 10:32:19;;;;;;;;;;;21.90;99.90;;;;;;5024306;28;19917;-77
2023/07/04 10:34:46;;;;;;;;;;;21.70;99.90;;;;;;5036463;28;20305;-77
2023/07/04 10:37:19;;;;;;;;;;;21.50;99.90;;;;;;5023922;28;19916;-78
2023/07/04 10:39:44;;;;;;;;;;;21.40;99.90;;;;;;5005466;28;20417;-77
2023/07/04 10:42:25;;;;;;;;;;;21.40;99.90;;;;;;5022364;28;19913;-78
2023/07/04 10:44:52;;;;;;;;;;;22.00;99.90;;;;;;5022829;28;20044;-77
2023/07/04 10:47:38;;;;;;;;;;;22.90;99.90;;;;;;5038605;28;19931;-78
2023/07/04 10:50:19;;;;;;;;;;;23.20;99.90;;;;;;5005734;28;20515;-78
2023/07/04 10:52:47;;;;;;;;;;;23.70;99.90;;;;;;5019490;28;19935;-78
2023/07/04 10:55:22;;;;;;;;;;;24.30;99.90;;;;;;5024032;28;19936;-78
2023/07/04 10:57:56;;;;;;;;;;;24.90;99.90;;;;;;5000288;28;19967;-78
2023/07/04 11:00:28;;;;;;;;;;;25.10;99.90;;;;;;5021823;28;20147;-79
2023/07/04 11:03:00;;;;;;;;;;;25.20;99.90;;;;;;5022710;28;20049;-78
2023/07/04 11:05:49;;;;;;;;;;;25.10;99.90;;;;;;4998925;28;19920;-78
2023/07/04 11:08:20;;;;;;;;;;;25.20;99.20;;;;;;5022280;28;19924;-78
2023/07/04 11:10:48;;;;;;;;;;;24.80;99.90;;;;;;5017646;28;19928;-78
2023/07/04 11:13:16;;;;;;;;;;;24.20;99.80;;;;;;5018274;28;19962;-79
2023/07/04 11:15:42;;;;;;;;;;;23.70;99.90;;;;;;5017216;28;19917;-78
2023/07/04 11:18:13;;;;;;;;;;;23.70;99.90;;;;;;5005592;28;19921;-79
2023/07/04 11:21:11;;;;;;;;;;;23.90;99.90;;;;;;5005708;28;19924;-78
2023/07/04 11:23:46;;;;;;;;;;;24.30;99.90;;;;;;4999237;28;19921;-77
2023/07/04 11:26:17;;;;;;;;;;;24.00;99.00;;;;;;5000591;28;19941;-78
2023/07/04 11:28:45;;;;;;;;;;;23.70;99.10;;;;;;5000604;28;19961;-77
2023/07/04 11:31:30;;;;;;;;;;;23.60;98.60;;;;;;4979193;28;19910;-77
2023/07/04 11:33:56;;;;;;;;;;;23.80;99.20;;;;;;4978042;28;19924;-78
2023/07/04 11:36:51;;;;;;;;;;;24.10;98.60;;;;;;5000016;28;19913;-77
2023/07/04 11:39:16;;;;;;;;;;;24.10;99.10;;;;;;5001058;28;20605;-77
2023/07/04 11:41:49;;;;;;;;;;;24.30;99.90;;;;;;5000039;28;19921;-77
2023/07/04 11:44:31;;;;;;;;;;;24.30;99.90;;;;;;5000737;28;19913;-79
2023/07/04 11:47:05;;;;;;;;;;;24.10;99.60;;;;;;4978691;28;20000;-79
2023/07/04 11:49:32;;;;;;;;;;;23.70;99.00;;;;;;5001136;28;19913;-79
2023/07/04 11:52:28;;;;;;;;;;;23.00;99.20;;;;;;4999173;28;19915;-78
2023/07/04 11:54:58;;;;;;;;;;;22.60;99.90;;;;;;5014013;28;20676;-78
2023/07/04 11:57:46;;;;;;;;;;;22.80;99.90;;;;;;4999719;28;19945;-78
2023/07/04 12:00:21;;;;;;;;;;;23.30;99.90;;;;;;5022788;28;19917;-78
2023/07/04 12:02:46;;;;;;;;;;;23.60;99.50;;;;;;5000711;28;19913;-76
2023/07/04 12:05:33;;;;;;;;;;;23.50;99.70;;;;;;5048362;28;19996;-78
2023/07/04 12:08:07;;;;;;;;;;;23.80;99.90;;;;;;5015205;28;19917;-78
2023/07/04 12:10:33;;;;;;;;;;;24.40;99.90;;;;;;5019628;28;19917;-79
2023/07/04 12:13:02;;;;;;;;;;;25.00;98.60;;;;;;5045994;28;19937;-79
2023/07/04 12:15:30;;;;;;;;;;;25.60;98.40;;;;;;5034485;28;19917;-80
2023/07/04 12:17:58;;;;;;;;;;;26.30;98.20;;;;;;5015366;28;20000;-80
2023/07/04 12:20:26;;;;;;;;;;;26.70;98.30;;;;;;5023917;28;20024;-80
2023/07/04 12:22:53;;;;;;;;;;;26.90;97.00;;;;;;5005198;28;19943;-77
2023/07/04 12:25:21;;;;;;;;;;;26.90;96.90;;;;;;5024318;28;19983;-78
2023/07/04 12:27:50;;;;;;;;;;;26.50;96.80;;;;;;5023352;28;19917;-79
2023/07/04 12:30:15;;;;;;;;;;;26.00;95.40;;;;;;5021980;28;19924;-79
2023/07/04 12:32:41;;;;;;;;;;;25.20;95.50;;;;;;5022705;28;19996;-79
2023/07/04 12:35:11;;;;;;;;;;;24.90;96.70;;;;;;5019077;28;19975;-79
2023/07/04 12:37:44;;;;;;;;;;;24.80;96.90;;;;;;5001270;28;19913;-79
2023/07/04 12:40:13;;;;;;;;;;;24.70;96.60;;;;;;5022265;28;19913;-78
2023/07/04 12:42:39;;;;;;;;;;;24.80;96.60;;;;;;5022847;28;20822;-77
2023/07/04 12:45:09;;;;;;;;;;;25.20;96.40;;;;;;5021136;28;19944;-76
2023/07/04 12:47:35;;;;;;;;;;;25.50;95.20;;;;;;5017378;28;19921;-79
2023/07/04 12:50:02;;;;;;;;;;;25.80;95.50;;;;;;5021397;28;19967;-77
2023/07/04 12:52:31;;;;;;;;;;;26.30;95.90;;;;;;5017767;28;19921;-79
2023/07/04 12:55:00;;;;;;;;;;;26.60;95.10;;;;;;5004494;28;19928;-77
2023/07/04 12:57:29;;;;;;;;;;;26.60;94.10;;;;;;4979016;28;19912;-76
2023/07/04 13:00:09;;;;;;;;;;;26.40;94.10;;;;;;5004110;28;19967;-77
2023/07/04 13:02:35;;;;;;;;;;;26.40;93.40;;;;;;4996406;28;19921;-77
2023/07/04 13:05:11;;;;;;;;;;;26.60;93.10;;;;;;5002935;28;19920;-79
2023/07/04 13:07:37;;;;;;;;;;;26.80;93.40;;;;;;5017674;28;20676;-78
2023/07/04 13:10:03;;;;;;;;;;;26.60;92.90;;;;;;5005522;28;20420;-78
2023/07/04 13:12:34;;;;;;;;;;;26.20;93.60;;;;;;5018981;28;19917;-78
2023/07/04 13:15:05;;;;;;;;;;;26.00;94.00;;;;;;5005186;28;19919;-78
2023/07/04 13:17:31;;;;;;;;;;;25.70;94.60;;;;;;5002960;28;19913;-79
2023/07/04 13:19:56;;;;;;;;;;;25.50;94.80;;;;;;5017671;28;19968;-78
2023/07/04 13:22:25;;;;;;;;;;;25.40;95.30;;;;;;4995849;28;19963;-79
2023/07/04 13:24:53;;;;;;;;;;;26.00;95.40;;;;;;4998124;28;19960;-79
2023/07/04 13:27:23;;;;;;;;;;;26.70;95.40;;;;;;5000119;28;19925;-78
2023/07/04 13:29:51;;;;;;;;;;;27.10;92.40;;;;;;4996686;28;19948;-78
2023/07/04 13:32:46;;;;;;;;;;;27.20;92.40;;;;;;5004618;28;19924;-79
2023/07/04 13:35:33;;;;;;;;;;;27.00;93.00;;;;;;4988890;28;19921;-80
2023/07/04 13:38:01;;;;;;;;;;;26.50;93.70;;;;;;4989785;28;19917;-78
2023/07/04 13:40:31;;;;;;;;;;;26.10;94.70;;;;;;5022115;28;19996;-80
2023/07/04 13:43:06;;;;;;;;;;;26.00;95.20;;;;;;4982324;28;19913;-79
2023/07/04 13:45:36;;;;;;;;;;;25.70;95.00;;;;;;5021722;28;20012;-80
2023/07/04 13:48:04;;;;;;;;;;;25.40;95.40;;;;;;5004406;28;20467;-80
2023/07/04 13:50:30;;;;;;;;;;;25.40;94.80;;;;;;4998799;28;19917;-80
2023/07/04 13:52:58;;;;;;;;;;;25.50;94.70;;;;;;5013501;28;20007;-80
2023/07/04 13:55:26;;;;;;;;;;;25.90;94.00;;;;;;5006927;28;19919;-80
2023/07/04 13:57:52;;;;;;;;;;;26.40;93.30;;;;;;5020781;28;19913;-80
2023/07/04 14:00:18;;;;;;;;;;;26.40;93.10;;;;;;5003602;28;19917;-81
2023/07/04 14:02:45;;;;;;;;;;;26.30;93.30;;;;;;5002396;28;19959;-80
2023/07/04 14:05:11;;;;;;;;;;;26.20;92.20;;;;;;5039064;28;19917;-80
2023/07/04 14:07:39;;;;;;;;;;;25.90;92.30;;;;;;5019217;28;19929;-80
2023/07/04 14:10:08;;;;;;;;;;;25.60;92.70;;;;;;5001145;28;20347;-80
2023/07/04 14:12:34;;;;;;;;;;;25.50;93.60;;;;;;5007177;28;19921;-79
2023/07/04 14:15:03;;;;;;;;;;;25.80;93.60;;;;;;5022662;28;19916;-80
2023/07/04 14:17:29;;;;;;;;;;;25.90;93.20;;;;;;5024889;28;19920;-80
2023/07/04 14:19:57;;;;;;;;;;;25.80;92.40;;;;;;5023348;28;20305;-81
2023/07/04 14:22:26;;;;;;;;;;;25.40;92.80;;;;;;5039292;28;19956;-79
2023/07/04 14:24:51;;;;;;;;;;;25.20;93.10;;;;;;5023099;28;20028;-80